sensor_id;sensor_type;location;lat;lon;timestamp;P1;durP1;ratioP1;P2;durP2;ratioP2
7231;SDS011;3657;49.630;11.018;2023-01-29T00:01:08;15.87;;;14.97;;
7231;SDS011;3657;49.630;11.018;2023-01-29T00:03:35;17.90;;;16.80;;
7231;SDS011;3657;49.630;11.018;2023-01-29T00:06:04;17.70;;;16.47;;
7231;SDS011;3657;49.630;11.018;2023-01-29T00:08:32;15.63;;;14.73;;
7231;SDS011;3657;49.630;11.018;2023-01-29T00:10:59;15.97;;;15.00;;
7231;SDS011;3657;49.630;11.018;2023-01-29T00:13:26;16.00;;;15.10;;
7231;SDS011;3657;49.630;11.018;2023-01-29T00:15:53;17.20;;;16.03;;
7231;SDS011;3657;49.630;11.018;2023-01-29T00:18:20;16.17;;;15.17;;
7231;SDS011;3657;49.630;11.018;2023-01-29T00:20:47;17.27;;;16.27;;
7231;SDS011;3657;49.630;11.018;2023-01-29T00:23:15;16.03;;;15.03;;
7231;SDS011;3657;49.630;11.018;2023-01-29T00:25:42;17.33;;;16.13;;
7231;SDS011;3657;49.630;11.018;2023-01-29T00:28:09;17.67;;;16.63;;
7231;SDS011;3657;49.630;11.018;2023-01-29T00:30:37;16.17;;;15.27;;
7231;SDS011;3657;49.630;11.018;2023-01-29T00:33:04;17.37;;;16.37;;
7231;SDS011;3657;49.630;11.018;2023-01-29T00:35:30;17.33;;;16.17;;
7231;SDS011;3657;49.630;11.018;2023-01-29T00:37:57;16.53;;;15.40;;
7231;SDS011;3657;49.630;11.018;2023-01-29T00:40:26;16.63;;;15.73;;
7231;SDS011;3657;49.630;11.018;2023-01-29T00:43:12;17.57;;;16.47;;
7231;SDS011;3657;49.630;11.018;2023-01-29T00:45:56;17.13;;;16.00;;
7231;SDS011;3657;49.630;11.018;2023-01-29T00:48:23;17.20;;;16.10;;
7231;SDS011;3657;49.630;11.018;2023-01-29T00:50:50;16.43;;;15.37;;
7231;SDS011;3657;49.630;11.018;2023-01-29T00:53:16;18.00;;;17.00;;
7231;SDS011;3657;49.630;11.018;2023-01-29T00:55:44;16.80;;;15.90;;
7231;SDS011;3657;49.630;11.018;2023-01-29T00:58:11;15.93;;;15.03;;
7231;SDS011;3657;49.630;11.018;2023-01-29T01:00:39;15.43;;;14.50;;
7231;SDS011;3657;49.630;11.018;2023-01-29T01:03:06;15.40;;;14.60;;
7231;SDS011;3657;49.630;11.018;2023-01-29T01:05:32;15.03;;;14.23;;
7231;SDS011;3657;49.630;11.018;2023-01-29T01:07:59;15.63;;;14.80;;
7231;SDS011;3657;49.630;11.018;2023-01-29T01:10:27;14.90;;;14.10;;
7231;SDS011;3657;49.630;11.018;2023-01-29T01:12:55;14.90;;;14.07;;
7231;SDS011;3657;49.630;11.018;2023-01-29T01:15:24;16.13;;;15.13;;
7231;SDS011;3657;49.630;11.018;2023-01-29T01:17:53;14.90;;;14.17;;
7231;SDS011;3657;49.630;11.018;2023-01-29T01:20:20;16.50;;;15.60;;
7231;SDS011;3657;49.630;11.018;2023-01-29T01:22:47;15.13;;;14.13;;
7231;SDS011;3657;49.630;11.018;2023-01-29T01:25:14;16.90;;;15.90;;
7231;SDS011;3657;49.630;11.018;2023-01-29T01:27:41;16.50;;;15.60;;
7231;SDS011;3657;49.630;11.018;2023-01-29T01:30:10;15.83;;;14.93;;
7231;SDS011;3657;49.630;11.018;2023-01-29T01:32:39;13.37;;;12.53;;
7231;SDS011;3657;49.630;11.018;2023-01-29T01:35:07;16.23;;;15.13;;
7231;SDS011;3657;49.630;11.018;2023-01-29T01:37:34;17.20;;;16.20;;
7231;SDS011;3657;49.630;11.018;2023-01-29T01:40:02;16.37;;;15.37;;
7231;SDS011;3657;49.630;11.018;2023-01-29T01:42:36;17.93;;;16.67;;
7231;SDS011;3657;49.630;11.018;2023-01-29T01:45:04;16.70;;;15.70;;
7231;SDS011;3657;49.630;11.018;2023-01-29T01:47:36;15.43;;;14.63;;
7231;SDS011;3657;49.630;11.018;2023-01-29T01:50:06;15.80;;;14.80;;
7231;SDS011;3657;49.630;11.018;2023-01-29T01:52:38;16.80;;;15.83;;
7231;SDS011;3657;49.630;11.018;2023-01-29T01:55:08;16.97;;;15.87;;
7231;SDS011;3657;49.630;11.018;2023-01-29T01:57:38;16.07;;;15.07;;
7231;SDS011;3657;49.630;11.018;2023-01-29T02:00:07;17.03;;;16.03;;
7231;SDS011;3657;49.630;11.018;2023-01-29T02:02:39;16.23;;;15.23;;
7231;SDS011;3657;49.630;11.018;2023-01-29T02:05:24;16.67;;;15.67;;
7231;SDS011;3657;49.630;11.018;2023-01-29T02:08:09;16.40;;;15.30;;
7231;SDS011;3657;49.630;11.018;2023-01-29T02:10:54;15.97;;;14.97;;
7231;SDS011;3657;49.630;11.018;2023-01-29T02:13:23;16.20;;;15.27;;
7231;SDS011;3657;49.630;11.018;2023-01-29T02:15:49;17.53;;;16.37;;
7231;SDS011;3657;49.630;11.018;2023-01-29T02:18:18;16.67;;;15.67;;
7231;SDS011;3657;49.630;11.018;2023-01-29T02:20:48;17.87;;;16.57;;
7231;SDS011;3657;49.630;11.018;2023-01-29T02:23:37;17.00;;;16.03;;
7231;SDS011;3657;49.630;11.018;2023-01-29T02:29:17;16.50;;;15.50;;
7231;SDS011;3657;49.630;11.018;2023-01-29T02:31:51;16.63;;;15.60;;
7231;SDS011;3657;49.630;11.018;2023-01-29T02:34:26;16.90;;;15.90;;
7231;SDS011;3657;49.630;11.018;2023-01-29T02:37:21;16.37;;;15.37;;
7231;SDS011;3657;49.630;11.018;2023-01-29T02:39:56;15.97;;;15.07;;
7231;SDS011;3657;49.630;11.018;2023-01-29T02:42:31;17.20;;;16.20;;
7231;SDS011;3657;49.630;11.018;2023-01-29T02:45:04;16.87;;;15.63;;
7231;SDS011;3657;49.630;11.018;2023-01-29T02:47:38;16.53;;;15.43;;
7231;SDS011;3657;49.630;11.018;2023-01-29T02:50:12;16.17;;;15.23;;
7231;SDS011;3657;49.630;11.018;2023-01-29T02:52:44;16.73;;;15.60;;
7231;SDS011;3657;49.630;11.018;2023-01-29T02:55:19;16.30;;;15.23;;
7231;SDS011;3657;49.630;11.018;2023-01-29T02:57:51;15.67;;;14.67;;
7231;SDS011;3657;49.630;11.018;2023-01-29T03:00:23;17.43;;;16.30;;
7231;SDS011;3657;49.630;11.018;2023-01-29T03:02:54;17.07;;;15.97;;
7231;SDS011;3657;49.630;11.018;2023-01-29T03:05:26;16.40;;;15.37;;
7231;SDS011;3657;49.630;11.018;2023-01-29T03:07:57;16.27;;;15.37;;
7231;SDS011;3657;49.630;11.018;2023-01-29T03:10:30;15.93;;;14.93;;
7231;SDS011;3657;49.630;11.018;2023-01-29T03:13:02;16.80;;;15.50;;
7231;SDS011;3657;49.630;11.018;2023-01-29T03:15:37;16.37;;;15.40;;
7231;SDS011;3657;49.630;11.018;2023-01-29T03:18:11;16.73;;;15.63;;
7231;SDS011;3657;49.630;11.018;2023-01-29T03:20:41;17.70;;;16.40;;
7231;SDS011;3657;49.630;11.018;2023-01-29T03:23:13;15.93;;;15.03;;
7231;SDS011;3657;49.630;11.018;2023-01-29T03:25:47;17.63;;;16.43;;
7231;SDS011;3657;49.630;11.018;2023-01-29T03:28:33;16.77;;;15.77;;
7231;SDS011;3657;49.630;11.018;2023-01-29T03:31:20;15.50;;;14.70;;
7231;SDS011;3657;49.630;11.018;2023-01-29T03:34:05;17.57;;;16.47;;
7231;SDS011;3657;49.630;11.018;2023-01-29T03:36:41;16.00;;;15.10;;
7231;SDS011;3657;49.630;11.018;2023-01-29T03:39:12;16.33;;;15.43;;
7231;SDS011;3657;49.630;11.018;2023-01-29T03:41:41;17.93;;;16.73;;
7231;SDS011;3657;49.630;11.018;2023-01-29T03:44:14;15.83;;;14.90;;
7231;SDS011;3657;49.630;11.018;2023-01-29T03:46:47;17.23;;;16.13;;
7231;SDS011;3657;49.630;11.018;2023-01-29T03:49:18;16.23;;;15.23;;
7231;SDS011;3657;49.630;11.018;2023-01-29T03:51:51;17.80;;;16.60;;
7231;SDS011;3657;49.630;11.018;2023-01-29T03:54:24;15.83;;;14.93;;
7231;SDS011;3657;49.630;11.018;2023-01-29T03:56:56;16.60;;;15.63;;
7231;SDS011;3657;49.630;11.018;2023-01-29T03:59:31;17.57;;;16.33;;
7231;SDS011;3657;49.630;11.018;2023-01-29T04:02:03;17.37;;;16.17;;
7231;SDS011;3657;49.630;11.018;2023-01-29T04:04:33;16.67;;;15.67;;
7231;SDS011;3657;49.630;11.018;2023-01-29T04:07:03;18.77;;;17.47;;
7231;SDS011;3657;49.630;11.018;2023-01-29T04:09:35;18.07;;;16.80;;
7231;SDS011;3657;49.630;11.018;2023-01-29T04:12:04;18.00;;;16.80;;
7231;SDS011;3657;49.630;11.018;2023-01-29T04:14:34;17.97;;;16.83;;
7231;SDS011;3657;49.630;11.018;2023-01-29T04:17:02;18.80;;;17.60;;
7231;SDS011;3657;49.630;11.018;2023-01-29T04:19:36;18.77;;;17.53;;
7231;SDS011;3657;49.630;11.018;2023-01-29T04:22:04;17.77;;;16.57;;
7231;SDS011;3657;49.630;11.018;2023-01-29T04:24:32;17.73;;;16.53;;
7231;SDS011;3657;49.630;11.018;2023-01-29T04:27:04;19.30;;;17.90;;
7231;SDS011;3657;49.630;11.018;2023-01-29T04:29:39;16.27;;;15.27;;
7231;SDS011;3657;49.630;11.018;2023-01-29T04:32:16;18.53;;;17.27;;
7231;SDS011;3657;49.630;11.018;2023-01-29T04:34:55;18.00;;;16.80;;
7231;SDS011;3657;49.630;11.018;2023-01-29T04:37:29;17.67;;;16.43;;
7231;SDS011;3657;49.630;11.018;2023-01-29T04:40:03;18.87;;;17.57;;
7231;SDS011;3657;49.630;11.018;2023-01-29T04:42:41;19.33;;;17.93;;
7231;SDS011;3657;49.630;11.018;2023-01-29T04:45:15;17.97;;;16.87;;
7231;SDS011;3657;49.630;11.018;2023-01-29T04:47:52;19.37;;;18.03;;
7231;SDS011;3657;49.630;11.018;2023-01-29T04:50:27;17.90;;;16.67;;
7231;SDS011;3657;49.630;11.018;2023-01-29T04:52:59;18.00;;;16.90;;
7231;SDS011;3657;49.630;11.018;2023-01-29T04:55:31;18.50;;;17.20;;
7231;SDS011;3657;49.630;11.018;2023-01-29T04:58:05;19.07;;;17.67;;
7231;SDS011;3657;49.630;11.018;2023-01-29T05:00:37;17.53;;;16.43;;
7231;SDS011;3657;49.630;11.018;2023-01-29T05:03:08;17.83;;;16.57;;
7231;SDS011;3657;49.630;11.018;2023-01-29T05:05:38;16.70;;;15.60;;
7231;SDS011;3657;49.630;11.018;2023-01-29T05:08:07;17.60;;;16.23;;
7231;SDS011;3657;49.630;11.018;2023-01-29T05:10:37;18.83;;;17.57;;
7231;SDS011;3657;49.630;11.018;2023-01-29T05:13:05;17.80;;;16.70;;
7231;SDS011;3657;49.630;11.018;2023-01-29T05:15:37;16.80;;;15.90;;
7231;SDS011;3657;49.630;11.018;2023-01-29T05:18:05;17.30;;;16.23;;
7231;SDS011;3657;49.630;11.018;2023-01-29T05:20:36;16.70;;;15.40;;
7231;SDS011;3657;49.630;11.018;2023-01-29T05:23:07;16.03;;;15.10;;
7231;SDS011;3657;49.630;11.018;2023-01-29T05:25:35;18.17;;;16.97;;
7231;SDS011;3657;49.630;11.018;2023-01-29T05:28:02;17.60;;;16.50;;
7231;SDS011;3657;49.630;11.018;2023-01-29T05:30:28;18.13;;;16.77;;
7231;SDS011;3657;49.630;11.018;2023-01-29T05:32:54;16.60;;;15.67;;
7231;SDS011;3657;49.630;11.018;2023-01-29T05:35:21;18.07;;;16.87;;
7231;SDS011;3657;49.630;11.018;2023-01-29T05:37:49;16.80;;;15.70;;
7231;SDS011;3657;49.630;11.018;2023-01-29T05:40:16;17.83;;;16.80;;
7231;SDS011;3657;49.630;11.018;2023-01-29T05:42:42;17.70;;;16.60;;
7231;SDS011;3657;49.630;11.018;2023-01-29T05:45:09;17.87;;;16.80;;
7231;SDS011;3657;49.630;11.018;2023-01-29T05:47:36;16.87;;;15.77;;
7231;SDS011;3657;49.630;11.018;2023-01-29T05:50:03;18.43;;;17.13;;
7231;SDS011;3657;49.630;11.018;2023-01-29T05:52:30;17.00;;;16.00;;
7231;SDS011;3657;49.630;11.018;2023-01-29T05:54:58;18.77;;;17.47;;
7231;SDS011;3657;49.630;11.018;2023-01-29T05:57:25;17.17;;;16.07;;
7231;SDS011;3657;49.630;11.018;2023-01-29T05:59:52;13.47;;;12.63;;
7231;SDS011;3657;49.630;11.018;2023-01-29T06:02:19;16.47;;;15.57;;
7231;SDS011;3657;49.630;11.018;2023-01-29T06:04:46;17.37;;;16.27;;
7231;SDS011;3657;49.630;11.018;2023-01-29T06:07:12;16.83;;;15.53;;
7231;SDS011;3657;49.630;11.018;2023-01-29T06:09:39;18.30;;;17.07;;
7231;SDS011;3657;49.630;11.018;2023-01-29T06:12:07;17.17;;;16.07;;
7231;SDS011;3657;49.630;11.018;2023-01-29T06:14:34;18.10;;;16.77;;
7231;SDS011;3657;49.630;11.018;2023-01-29T06:17:00;17.30;;;16.20;;
7231;SDS011;3657;49.630;11.018;2023-01-29T06:19:27;16.93;;;15.83;;
7231;SDS011;3657;49.630;11.018;2023-01-29T06:21:54;16.60;;;15.50;;
7231;SDS011;3657;49.630;11.018;2023-01-29T06:24:20;17.00;;;16.00;;
7231;SDS011;3657;49.630;11.018;2023-01-29T06:26:47;15.93;;;14.93;;
7231;SDS011;3657;49.630;11.018;2023-01-29T06:29:15;15.33;;;14.53;;
7231;SDS011;3657;49.630;11.018;2023-01-29T06:31:42;18.10;;;16.80;;
7231;SDS011;3657;49.630;11.018;2023-01-29T06:34:08;16.50;;;15.60;;
7231;SDS011;3657;49.630;11.018;2023-01-29T06:36:35;16.77;;;15.77;;
7231;SDS011;3657;49.630;11.018;2023-01-29T06:39:02;17.47;;;16.20;;
7231;SDS011;3657;49.630;11.018;2023-01-29T06:41:29;16.30;;;15.40;;
7231;SDS011;3657;49.630;11.018;2023-01-29T06:43:55;17.30;;;16.27;;
7231;SDS011;3657;49.630;11.018;2023-01-29T06:46:23;17.67;;;16.30;;
7231;SDS011;3657;49.630;11.018;2023-01-29T06:48:50;17.13;;;16.03;;
7231;SDS011;3657;49.630;11.018;2023-01-29T06:51:17;18.00;;;16.60;;
7231;SDS011;3657;49.630;11.018;2023-01-29T06:53:45;16.30;;;15.30;;
7231;SDS011;3657;49.630;11.018;2023-01-29T06:56:11;18.00;;;16.80;;
7231;SDS011;3657;49.630;11.018;2023-01-29T06:58:38;16.73;;;15.73;;
7231;SDS011;3657;49.630;11.018;2023-01-29T07:01:05;14.90;;;14.10;;
7231;SDS011;3657;49.630;11.018;2023-01-29T07:03:34;15.20;;;14.37;;
7231;SDS011;3657;49.630;11.018;2023-01-29T07:06:02;17.10;;;16.00;;
7231;SDS011;3657;49.630;11.018;2023-01-29T07:08:30;16.97;;;16.07;;
7231;SDS011;3657;49.630;11.018;2023-01-29T07:10:59;16.10;;;15.00;;
7231;SDS011;3657;49.630;11.018;2023-01-29T07:13:26;16.73;;;15.63;;
7231;SDS011;3657;49.630;11.018;2023-01-29T07:15:53;16.83;;;15.83;;
7231;SDS011;3657;49.630;11.018;2023-01-29T07:18:22;17.10;;;15.97;;
7231;SDS011;3657;49.630;11.018;2023-01-29T07:20:50;16.23;;;15.20;;
7231;SDS011;3657;49.630;11.018;2023-01-29T07:23:17;16.50;;;15.50;;
7231;SDS011;3657;49.630;11.018;2023-01-29T07:25:43;17.17;;;16.03;;
7231;SDS011;3657;49.630;11.018;2023-01-29T07:28:11;16.33;;;15.37;;
7231;SDS011;3657;49.630;11.018;2023-01-29T07:30:37;16.93;;;15.67;;
7231;SDS011;3657;49.630;11.018;2023-01-29T07:33:04;17.50;;;16.40;;
7231;SDS011;3657;49.630;11.018;2023-01-29T07:35:34;16.10;;;15.10;;
7231;SDS011;3657;49.630;11.018;2023-01-29T07:38:03;16.43;;;15.53;;
7231;SDS011;3657;49.630;11.018;2023-01-29T07:40:30;15.67;;;14.83;;
7231;SDS011;3657;49.630;11.018;2023-01-29T07:42:57;17.63;;;16.50;;
7231;SDS011;3657;49.630;11.018;2023-01-29T07:45:24;17.53;;;16.33;;
7231;SDS011;3657;49.630;11.018;2023-01-29T07:47:51;17.07;;;15.97;;
7231;SDS011;3657;49.630;11.018;2023-01-29T07:50:19;16.13;;;15.13;;
7231;SDS011;3657;49.630;11.018;2023-01-29T07:52:46;16.93;;;15.87;;
7231;SDS011;3657;49.630;11.018;2023-01-29T07:55:14;17.17;;;15.90;;
7231;SDS011;3657;49.630;11.018;2023-01-29T07:57:42;17.20;;;16.10;;
7231;SDS011;3657;49.630;11.018;2023-01-29T08:00:09;17.17;;;16.03;;
7231;SDS011;3657;49.630;11.018;2023-01-29T08:02:37;16.80;;;15.70;;
7231;SDS011;3657;49.630;11.018;2023-01-29T08:05:04;17.03;;;16.03;;
7231;SDS011;3657;49.630;11.018;2023-01-29T08:07:31;16.67;;;15.67;;
7231;SDS011;3657;49.630;11.018;2023-01-29T08:09:58;16.97;;;15.77;;
7231;SDS011;3657;49.630;11.018;2023-01-29T08:12:26;15.73;;;14.80;;
7231;SDS011;3657;49.630;11.018;2023-01-29T08:14:52;16.80;;;15.70;;
7231;SDS011;3657;49.630;11.018;2023-01-29T08:17:19;17.27;;;16.20;;
7231;SDS011;3657;49.630;11.018;2023-01-29T08:19:46;16.80;;;15.87;;
7231;SDS011;3657;49.630;11.018;2023-01-29T08:22:12;17.77;;;16.47;;
7231;SDS011;3657;49.630;11.018;2023-01-29T08:24:40;18.57;;;17.23;;
7231;SDS011;3657;49.630;11.018;2023-01-29T08:27:07;17.43;;;16.13;;
7231;SDS011;3657;49.630;11.018;2023-01-29T08:29:35;17.73;;;16.33;;
7231;SDS011;3657;49.630;11.018;2023-01-29T08:32:01;16.87;;;15.83;;
7231;SDS011;3657;49.630;11.018;2023-01-29T08:34:28;17.60;;;16.40;;
7231;SDS011;3657;49.630;11.018;2023-01-29T08:36:55;18.17;;;17.00;;
7231;SDS011;3657;49.630;11.018;2023-01-29T08:39:21;18.37;;;17.17;;
7231;SDS011;3657;49.630;11.018;2023-01-29T08:41:48;18.23;;;16.97;;
7231;SDS011;3657;49.630;11.018;2023-01-29T08:44:14;18.53;;;17.33;;
7231;SDS011;3657;49.630;11.018;2023-01-29T08:46:42;17.90;;;16.70;;
7231;SDS011;3657;49.630;11.018;2023-01-29T08:49:09;19.23;;;17.83;;
7231;SDS011;3657;49.630;11.018;2023-01-29T08:51:36;19.87;;;18.40;;
7231;SDS011;3657;49.630;11.018;2023-01-29T08:54:02;18.23;;;17.00;;
7231;SDS011;3657;49.630;11.018;2023-01-29T08:56:29;18.43;;;17.23;;
7231;SDS011;3657;49.630;11.018;2023-01-29T08:58:56;17.87;;;16.73;;
7231;SDS011;3657;49.630;11.018;2023-01-29T09:01:22;19.17;;;17.77;;
7231;SDS011;3657;49.630;11.018;2023-01-29T09:03:51;18.03;;;16.83;;
7231;SDS011;3657;49.630;11.018;2023-01-29T09:06:17;18.43;;;17.13;;
7231;SDS011;3657;49.630;11.018;2023-01-29T09:08:44;19.03;;;17.63;;
7231;SDS011;3657;49.630;11.018;2023-01-29T09:11:11;18.57;;;17.17;;
7231;SDS011;3657;49.630;11.018;2023-01-29T09:13:37;18.77;;;17.47;;
7231;SDS011;3657;49.630;11.018;2023-01-29T09:16:04;19.60;;;18.13;;
7231;SDS011;3657;49.630;11.018;2023-01-29T09:18:31;20.07;;;18.57;;
7231;SDS011;3657;49.630;11.018;2023-01-29T09:20:59;20.30;;;18.90;;
7231;SDS011;3657;49.630;11.018;2023-01-29T09:23:27;18.77;;;17.40;;
7231;SDS011;3657;49.630;11.018;2023-01-29T09:25:54;20.27;;;18.67;;
7231;SDS011;3657;49.630;11.018;2023-01-29T09:28:21;19.60;;;18.03;;
7231;SDS011;3657;49.630;11.018;2023-01-29T09:30:48;19.63;;;18.33;;
7231;SDS011;3657;49.630;11.018;2023-01-29T09:33:15;22.40;;;20.60;;
7231;SDS011;3657;49.630;11.018;2023-01-29T09:35:42;20.23;;;18.63;;
7231;SDS011;3657;49.630;11.018;2023-01-29T09:38:12;19.80;;;18.17;;
7231;SDS011;3657;49.630;11.018;2023-01-29T09:40:40;18.77;;;17.47;;
7231;SDS011;3657;49.630;11.018;2023-01-29T09:43:16;20.53;;;19.03;;
7231;SDS011;3657;49.630;11.018;2023-01-29T09:45:48;19.70;;;18.30;;
7231;SDS011;3657;49.630;11.018;2023-01-29T09:48:20;20.67;;;18.97;;
7231;SDS011;3657;49.630;11.018;2023-01-29T09:50:52;16.97;;;15.50;;
7231;SDS011;3657;49.630;11.018;2023-01-29T09:53:24;22.27;;;20.33;;
7231;SDS011;3657;49.630;11.018;2023-01-29T09:55:58;22.27;;;20.57;;
7231;SDS011;3657;49.630;11.018;2023-01-29T09:58:28;19.47;;;17.97;;
7231;SDS011;3657;49.630;11.018;2023-01-29T10:00:59;19.57;;;18.07;;
7231;SDS011;3657;49.630;11.018;2023-01-29T10:03:42;20.17;;;18.67;;
7231;SDS011;3657;49.630;11.018;2023-01-29T10:06:31;20.30;;;18.70;;
7231;SDS011;3657;49.630;11.018;2023-01-29T10:12:12;18.60;;;17.20;;
7231;SDS011;3657;49.630;11.018;2023-01-29T10:14:47;18.20;;;16.90;;
7231;SDS011;3657;49.630;11.018;2023-01-29T10:17:26;18.13;;;16.63;;
7231;SDS011;3657;49.630;11.018;2023-01-29T10:20:09;19.60;;;18.23;;
7231;SDS011;3657;49.630;11.018;2023-01-29T10:22:56;18.43;;;17.13;;
7231;SDS011;3657;49.630;11.018;2023-01-29T10:25:34;18.30;;;17.10;;
7231;SDS011;3657;49.630;11.018;2023-01-29T10:28:10;18.20;;;16.90;;
7231;SDS011;3657;49.630;11.018;2023-01-29T10:30:43;18.23;;;16.93;;
7231;SDS011;3657;49.630;11.018;2023-01-29T10:33:16;17.50;;;16.13;;
7231;SDS011;3657;49.630;11.018;2023-01-29T10:35:45;18.23;;;16.70;;
7231;SDS011;3657;49.630;11.018;2023-01-29T10:38:30;17.57;;;16.37;;
7231;SDS011;3657;49.630;11.018;2023-01-29T10:41:16;17.43;;;16.13;;
7231;SDS011;3657;49.630;11.018;2023-01-29T10:44:02;17.00;;;15.90;;
7231;SDS011;3657;49.630;11.018;2023-01-29T10:46:41;18.73;;;17.13;;
7231;SDS011;3657;49.630;11.018;2023-01-29T10:49:29;18.20;;;17.00;;
7231;SDS011;3657;49.630;11.018;2023-01-29T10:52:08;18.20;;;16.80;;
7231;SDS011;3657;49.630;11.018;2023-01-29T10:54:48;17.07;;;15.87;;
7231;SDS011;3657;49.630;11.018;2023-01-29T10:57:33;18.10;;;16.83;;
7231;SDS011;3657;49.630;11.018;2023-01-29T11:00:16;17.10;;;15.97;;
7231;SDS011;3657;49.630;11.018;2023-01-29T11:02:46;17.33;;;16.13;;
7231;SDS011;3657;49.630;11.018;2023-01-29T11:05:17;18.30;;;16.63;;
7231;SDS011;3657;49.630;11.018;2023-01-29T11:07:48;17.47;;;16.27;;
7231;SDS011;3657;49.630;11.018;2023-01-29T11:10:24;17.23;;;15.93;;
7231;SDS011;3657;49.630;11.018;2023-01-29T11:12:53;17.97;;;16.57;;
7231;SDS011;3657;49.630;11.018;2023-01-29T11:15:21;18.47;;;17.07;;
7231;SDS011;3657;49.630;11.018;2023-01-29T11:18:02;16.97;;;15.67;;
7231;SDS011;3657;49.630;11.018;2023-01-29T11:20:30;17.27;;;16.07;;
7231;SDS011;3657;49.630;11.018;2023-01-29T11:22:58;16.70;;;15.60;;
7231;SDS011;3657;49.630;11.018;2023-01-29T11:25:24;22.83;;;20.90;;
7231;SDS011;3657;49.630;11.018;2023-01-29T11:27:54;19.90;;;18.20;;
7231;SDS011;3657;49.630;11.018;2023-01-29T11:30:25;17.77;;;16.57;;
7231;SDS011;3657;49.630;11.018;2023-01-29T11:32:57;18.30;;;16.90;;
7231;SDS011;3657;49.630;11.018;2023-01-29T11:35:32;17.73;;;16.33;;
7231;SDS011;3657;49.630;11.018;2023-01-29T11:38:05;19.87;;;18.27;;
7231;SDS011;3657;49.630;11.018;2023-01-29T11:40:35;18.27;;;16.83;;
7231;SDS011;3657;49.630;11.018;2023-01-29T11:43:16;18.17;;;16.80;;
7231;SDS011;3657;49.630;11.018;2023-01-29T11:45:45;17.60;;;16.37;;
7231;SDS011;3657;49.630;11.018;2023-01-29T11:48:14;18.73;;;17.13;;
7231;SDS011;3657;49.630;11.018;2023-01-29T11:50:42;19.07;;;17.67;;
7231;SDS011;3657;49.630;11.018;2023-01-29T11:56:02;18.17;;;16.93;;
7231;SDS011;3657;49.630;11.018;2023-01-29T11:58:34;18.27;;;16.60;;
7231;SDS011;3657;49.630;11.018;2023-01-29T12:01:01;18.13;;;16.83;;
7231;SDS011;3657;49.630;11.018;2023-01-29T12:03:31;18.33;;;16.93;;
7231;SDS011;3657;49.630;11.018;2023-01-29T12:06:02;19.37;;;17.77;;
7231;SDS011;3657;49.630;11.018;2023-01-29T12:08:33;18.13;;;16.93;;
7231;SDS011;3657;49.630;11.018;2023-01-29T12:11:08;17.57;;;16.33;;
7231;SDS011;3657;49.630;11.018;2023-01-29T12:13:38;17.73;;;16.50;;
7231;SDS011;3657;49.630;11.018;2023-01-29T12:16:12;18.20;;;16.83;;
7231;SDS011;3657;49.630;11.018;2023-01-29T12:18:45;19.10;;;17.70;;
7231;SDS011;3657;49.630;11.018;2023-01-29T12:21:17;18.60;;;16.87;;
7231;SDS011;3657;49.630;11.018;2023-01-29T12:23:51;20.20;;;18.50;;
7231;SDS011;3657;49.630;11.018;2023-01-29T12:26:24;23.77;;;21.13;;
7231;SDS011;3657;49.630;11.018;2023-01-29T12:29:03;24.47;;;22.10;;
7231;SDS011;3657;49.630;11.018;2023-01-29T12:31:42;23.33;;;21.03;;
7231;SDS011;3657;49.630;11.018;2023-01-29T12:34:16;22.33;;;20.20;;
7231;SDS011;3657;49.630;11.018;2023-01-29T12:36:49;23.77;;;21.73;;
7231;SDS011;3657;49.630;11.018;2023-01-29T12:39:20;23.37;;;21.20;;
7231;SDS011;3657;49.630;11.018;2023-01-29T12:41:49;21.90;;;19.90;;
7231;SDS011;3657;49.630;11.018;2023-01-29T12:44:21;22.10;;;20.17;;
7231;SDS011;3657;49.630;11.018;2023-01-29T12:46:51;22.43;;;20.33;;
7231;SDS011;3657;49.630;11.018;2023-01-29T12:49:22;23.67;;;21.67;;
7231;SDS011;3657;49.630;11.018;2023-01-29T12:51:52;21.27;;;19.60;;
7231;SDS011;3657;49.630;11.018;2023-01-29T12:54:26;20.83;;;19.13;;
7231;SDS011;3657;49.630;11.018;2023-01-29T12:57:00;21.67;;;19.67;;
7231;SDS011;3657;49.630;11.018;2023-01-29T12:59:31;22.10;;;20.17;;
7231;SDS011;3657;49.630;11.018;2023-01-29T13:02:08;35.47;;;31.80;;
7231;SDS011;3657;49.630;11.018;2023-01-29T13:04:42;88.00;;;70.27;;
7231;SDS011;3657;49.630;11.018;2023-01-29T13:07:12;125.33;;;90.97;;
7231;SDS011;3657;49.630;11.018;2023-01-29T13:09:43;160.77;;;115.07;;
7231;SDS011;3657;49.630;11.018;2023-01-29T13:12:16;88.33;;;67.87;;
7231;SDS011;3657;49.630;11.018;2023-01-29T13:14:46;54.63;;;45.33;;
7231;SDS011;3657;49.630;11.018;2023-01-29T13:17:20;39.03;;;33.80;;
7231;SDS011;3657;49.630;11.018;2023-01-29T13:19:51;38.90;;;33.33;;
7231;SDS011;3657;49.630;11.018;2023-01-29T13:22:21;34.67;;;29.87;;
7231;SDS011;3657;49.630;11.018;2023-01-29T13:24:50;33.43;;;29.33;;
7231;SDS011;3657;49.630;11.018;2023-01-29T13:27:20;28.77;;;25.97;;
7231;SDS011;3657;49.630;11.018;2023-01-29T13:29:51;27.63;;;24.93;;
7231;SDS011;3657;49.630;11.018;2023-01-29T13:32:20;25.47;;;23.10;;
7231;SDS011;3657;49.630;11.018;2023-01-29T13:34:51;27.13;;;24.43;;
7231;SDS011;3657;49.630;11.018;2023-01-29T13:37:22;27.93;;;25.07;;
7231;SDS011;3657;49.630;11.018;2023-01-29T13:39:53;24.83;;;22.50;;
7231;SDS011;3657;49.630;11.018;2023-01-29T13:42:22;26.83;;;24.30;;
7231;SDS011;3657;49.630;11.018;2023-01-29T13:44:52;28.03;;;25.33;;
7231;SDS011;3657;49.630;11.018;2023-01-29T13:47:22;27.10;;;24.50;;
7231;SDS011;3657;49.630;11.018;2023-01-29T13:49:53;24.33;;;22.03;;
7231;SDS011;3657;49.630;11.018;2023-01-29T13:52:27;26.37;;;23.90;;
7231;SDS011;3657;49.630;11.018;2023-01-29T13:55:00;26.87;;;24.17;;
7231;SDS011;3657;49.630;11.018;2023-01-29T13:57:33;27.63;;;24.77;;
7231;SDS011;3657;49.630;11.018;2023-01-29T14:00:04;27.30;;;24.63;;
7231;SDS011;3657;49.630;11.018;2023-01-29T14:02:42;26.33;;;23.73;;
7231;SDS011;3657;49.630;11.018;2023-01-29T14:08:04;25.20;;;22.83;;
7231;SDS011;3657;49.630;11.018;2023-01-29T14:13:58;25.57;;;23.23;;
7231;SDS011;3657;49.630;11.018;2023-01-29T14:16:26;23.93;;;21.73;;
7231;SDS011;3657;49.630;11.018;2023-01-29T14:18:59;22.70;;;20.53;;
7231;SDS011;3657;49.630;11.018;2023-01-29T14:21:28;23.17;;;21.07;;
7231;SDS011;3657;49.630;11.018;2023-01-29T14:23:57;23.40;;;21.40;;
7231;SDS011;3657;49.630;11.018;2023-01-29T14:26:33;22.53;;;20.40;;
7231;SDS011;3657;49.630;11.018;2023-01-29T14:29:15;21.53;;;19.73;;
7231;SDS011;3657;49.630;11.018;2023-01-29T14:31:46;23.00;;;20.93;;
7231;SDS011;3657;49.630;11.018;2023-01-29T14:34:25;23.50;;;21.20;;
7231;SDS011;3657;49.630;11.018;2023-01-29T14:36:55;23.83;;;21.67;;
7231;SDS011;3657;49.630;11.018;2023-01-29T14:39:27;23.03;;;20.87;;
7231;SDS011;3657;49.630;11.018;2023-01-29T14:41:57;23.03;;;21.03;;
7231;SDS011;3657;49.630;11.018;2023-01-29T14:44:45;20.67;;;18.90;;
7231;SDS011;3657;49.630;11.018;2023-01-29T14:50:51;20.87;;;18.97;;
7231;SDS011;3657;49.630;11.018;2023-01-29T14:53:26;19.73;;;18.03;;
7231;SDS011;3657;49.630;11.018;2023-01-29T14:56:10;21.83;;;19.93;;
7231;SDS011;3657;49.630;11.018;2023-01-29T14:58:41;20.23;;;18.63;;
7231;SDS011;3657;49.630;11.018;2023-01-29T15:01:14;19.23;;;17.77;;
7231;SDS011;3657;49.630;11.018;2023-01-29T15:03:46;19.83;;;18.13;;
7231;SDS011;3657;49.630;11.018;2023-01-29T15:06:17;18.60;;;17.17;;
7231;SDS011;3657;49.630;11.018;2023-01-29T15:08:52;22.20;;;20.27;;
7231;SDS011;3657;49.630;11.018;2023-01-29T15:11:26;21.97;;;20.00;;
7231;SDS011;3657;49.630;11.018;2023-01-29T15:14:00;20.80;;;19.10;;